Time;durP1;ratioP1;P1;durP2;ratioP2;P2;SDS_P1;SDS_P2;PMS_P1;PMS_P2;Temp;Humidity;BMP_temperature;BMP_pressure;BME280_temperature;BME280_humidity;BME280_pressure;Samples;Min_cycle;Max_cycle;Signal;HPM_P1;HPM_P2
2022/07/16 00:02:39;;;;;;;2.65;0.98;;;;;;;13.43;100.00;97072.50;5024559;28;20040;-74
2022/07/16 00:05:05;;;;;;;5.00;0.90;;;;;;;13.45;100.00;97067.69;5023768;28;20029;-73
2022/07/16 00:07:31;;;;;;;4.28;1.05;;;;;;;13.40;100.00;97070.31;5025881;28;20029;-74
2022/07/16 00:09:58;;;;;;;2.85;0.90;;;;;;;13.41;100.00;97073.81;5024969;28;20029;-72
2022/07/16 00:12:25;;;;;;;2.92;1.00;;;;;;;13.42;100.00;97070.06;5024104;28;20045;-72
2022/07/16 00:14:50;;;;;;;3.63;0.98;;;;;;;13.40;100.00;97070.31;5032216;28;20776;-73
2022/07/16 00:17:16;;;;;;;2.90;0.80;;;;;;;13.38;100.00;97069.75;5032448;28;20044;-73
2022/07/16 00:19:41;;;;;;;4.38;1.00;;;;;;;13.34;100.00;97065.94;5027127;28;20530;-73
2022/07/16 00:22:07;;;;;;;3.47;0.85;;;;;;;13.27;100.00;97063.44;5025559;28;20116;-73
2022/07/16 00:24:32;;;;;;;4.47;1.00;;;;;;;12.91;100.00;97062.16;5026600;28;20029;-73
2022/07/16 00:26:58;;;;;;;3.30;0.88;;;;;;;12.87;100.00;97052.97;5024985;28;20080;-73
2022/07/16 00:29:23;;;;;;;4.43;0.93;;;;;;;12.85;100.00;97051.59;5025449;28;20033;-72
2022/07/16 00:31:50;;;;;;;4.78;0.98;;;;;;;12.74;100.00;97053.31;5027613;28;20056;-73
2022/07/16 00:34:16;;;;;;;4.93;1.17;;;;;;;12.49;100.00;97054.59;5027321;28;20045;-73
2022/07/16 00:36:42;;;;;;;6.32;1.00;;;;;;;12.38;100.00;97058.19;5029059;28;20355;-73
2022/07/16 00:39:09;;;;;;;2.85;0.90;;;;;;;12.30;100.00;97063.16;5026582;28;20025;-73
2022/07/16 00:41:36;;;;;;;2.45;0.90;;;;;;;12.25;100.00;97053.16;5026542;28;20033;-73
2022/07/16 00:44:06;;;;;;;4.68;1.00;;;;;;;12.12;100.00;97056.16;5024939;28;20086;-73
2022/07/16 00:46:32;;;;;;;4.03;0.90;;;;;;;12.02;100.00;97056.00;5029962;28;20041;-72
2022/07/16 00:48:58;;;;;;;4.57;1.05;;;;;;;11.99;100.00;97058.09;5026849;28;20040;-72
2022/07/16 00:51:25;;;;;;;5.15;0.95;;;;;;;12.01;100.00;97055.16;5027394;28;20524;-72
2022/07/16 00:53:52;;;;;;;4.35;0.98;;;;;;;11.99;100.00;97051.94;5027940;28;20037;-73
2022/07/16 00:56:17;;;;;;;4.88;0.93;;;;;;;11.97;100.00;97054.84;5028449;28;20037;-73
2022/07/16 00:58:45;;;;;;;4.10;0.98;;;;;;;12.03;100.00;97053.06;5026485;28;20146;-72
2022/07/16 01:01:11;;;;;;;4.97;1.17;;;;;;;11.98;100.00;97053.81;5025911;28;20178;-72
2022/07/16 01:03:38;;;;;;;3.72;1.10;;;;;;;11.92;100.00;97057.44;5027739;28;20197;-72
2022/07/16 01:06:05;;;;;;;3.20;0.90;;;;;;;12.02;100.00;97056.00;5025576;28;20051;-74
2022/07/16 01:08:33;;;;;;;3.45;0.98;;;;;;;12.19;100.00;97054.13;5025452;28;20032;-72
2022/07/16 01:10:59;;;;;;;2.78;0.80;;;;;;;12.17;100.00;97056.25;5027285;28;20099;-72
2022/07/16 01:13:24;;;;;;;3.85;0.80;;;;;;;12.12;100.00;97056.16;5025646;28;20029;-72
2022/07/16 01:15:50;;;;;;;3.05;0.98;;;;;;;12.20;100.00;97047.69;5026240;28;20045;-73
2022/07/16 01:18:16;;;;;;;3.67;1.00;;;;;;;12.18;100.00;97045.25;5025759;28;20534;-73
2022/07/16 01:20:41;;;;;;;5.63;1.10;;;;;;;12.15;100.00;97056.50;5028731;28;20037;-72
2022/07/16 01:23:08;;;;;;;5.25;1.10;;;;;;;12.01;100.00;97047.13;5025933;28;20056;-72
2022/07/16 01:25:33;;;;;;;4.32;1.00;;;;;;;11.90;100.00;97054.16;5027415;28;20026;-72
2022/07/16 01:27:59;;;;;;;3.67;0.98;;;;;;;11.94;100.00;97052.66;5027995;28;20036;-72
2022/07/16 01:30:25;;;;;;;5.75;1.10;;;;;;;11.93;100.00;97052.91;5023343;28;20471;-72
2022/07/16 01:32:50;;;;;;;24.05;1.10;;;;;;;11.94;100.00;97052.66;5026105;28;20041;-73
2022/07/16 01:35:16;;;;;;;2.83;0.90;;;;;;;11.88;100.00;97050.94;5026449;28;20025;-73
2022/07/16 01:37:41;;;;;;;4.75;1.15;;;;;;;11.77;100.00;97059.03;5025962;28;20061;-72
2022/07/16 01:40:07;;;;;;;4.43;1.05;;;;;;;11.79;100.00;97049.66;5023085;28;20037;-72
2022/07/16 01:42:33;;;;;;;3.88;1.00;;;;;;;11.79;100.00;97052.34;5028549;28;20036;-72
2022/07/16 01:45:00;;;;;;;2.88;1.00;;;;;;;11.58;100.00;97043.13;5024604;28;20029;-72
2022/07/16 01:47:25;;;;;;;3.40;0.90;;;;;;;11.71;100.00;97042.03;5024379;28;20021;-72
2022/07/16 01:49:51;;;;;;;4.53;1.00;;;;;;;11.73;100.00;97051.44;5026043;28;20045;-72
2022/07/16 01:52:19;;;;;;;2.38;0.90;;;;;;;11.84;100.00;97049.00;5023803;28;20044;-73
2022/07/16 01:54:47;;;;;;;3.58;0.98;;;;;;;11.78;100.00;97042.69;5025472;28;20491;-73
2022/07/16 01:57:13;;;;;;;4.60;1.10;;;;;;;11.74;100.00;97049.56;5026698;28;20072;-73
2022/07/16 01:59:39;;;;;;;6.35;1.08;;;;;;;11.73;100.00;97043.41;5020981;28;20261;-73
2022/07/16 02:02:05;;;;;;;2.70;1.00;;;;;;;11.64;100.00;97039.47;5029066;28;20530;-72
2022/07/16 02:04:31;;;;;;;3.70;0.90;;;;;;;11.53;100.00;97043.03;5026692;28;20591;-72
2022/07/16 02:06:59;;;;;;;3.38;0.95;;;;;;;11.57;100.00;97043.38;5024383;28;20873;-72
2022/07/16 02:09:24;;;;;;;4.32;0.90;;;;;;;11.55;100.00;97037.44;5024811;28;20073;-73
2022/07/16 02:11:51;;;;;;;2.97;0.95;;;;;;;11.27;100.00;97047.09;5023938;28;20130;-72
2022/07/16 02:14:18;;;;;;;4.72;1.13;;;;;;;11.33;100.00;97042.66;5040721;28;20064;-73
2022/07/16 02:16:44;;;;;;;4.38;1.20;;;;;;;11.43;100.00;97043.66;5028979;28;20641;-72
2022/07/16 02:19:10;;;;;;;6.00;1.23;;;;;;;11.48;100.00;97040.25;5026466;28;20032;-72
2022/07/16 02:21:35;;;;;;;5.10;1.58;;;;;;;11.39;100.00;97042.50;5023707;28;20171;-72
2022/07/16 02:24:01;;;;;;;3.78;1.00;;;;;;;11.46;100.00;97044.25;5026028;28;20037;-73
2022/07/16 02:26:26;;;;;;;4.25;1.30;;;;;;;11.45;100.00;97040.75;5023333;28;20040;-72
2022/07/16 02:28:52;;;;;;;4.10;1.20;;;;;;;11.41;100.00;97037.72;5023650;28;20041;-72
2022/07/16 02:31:18;;;;;;;4.40;1.20;;;;;;;11.23;100.00;97045.97;5024941;28;20550;-73
2022/07/16 02:33:44;;;;;;;5.78;1.30;;;;;;;11.22;100.00;97044.34;5025865;28;20041;-72
2022/07/16 02:36:10;;;;;;;4.50;1.30;;;;;;;11.12;100.00;97044.09;5024169;28;20292;-72
2022/07/16 02:38:35;;;;;;;4.22;1.58;;;;;;;11.18;100.00;97040.50;5024421;28;20120;-72
2022/07/16 02:41:01;;;;;;;4.72;1.27;;;;;;;11.24;100.00;97036.88;5024997;28;20431;-72
2022/07/16 02:43:26;;;;;;;4.22;1.25;;;;;;;11.22;100.00;97047.00;5022904;28;20057;-72
2022/07/16 02:45:52;;;;;;;5.45;1.30;;;;;;;11.18;100.00;97040.50;5023415;28;20307;-72
2022/07/16 02:48:17;;;;;;;3.95;1.20;;;;;;;11.16;100.00;97053.31;5023251;28;20043;-74
2022/07/16 02:50:43;;;;;;;4.60;1.38;;;;;;;11.20;100.00;97043.72;5024179;28;20051;-72
2022/07/16 02:53:08;;;;;;;5.53;1.23;;;;;;;11.03;100.00;97048.22;5025409;28;20407;-72
2022/07/16 02:55:34;;;;;;;3.95;1.50;;;;;;;10.95;100.00;97040.56;5026420;28;20390;-72
2022/07/16 02:57:59;;;;;;;7.97;1.38;;;;;;;10.91;100.00;97044.78;5025001;28;20072;-72
2022/07/16 03:00:25;;;;;;;4.60;1.30;;;;;;;10.96;100.00;97039.50;5022389;28;20033;-73
2022/07/16 03:02:51;;;;;;;5.05;1.35;;;;;;;10.98;100.00;97045.44;5025475;28;20045;-73
2022/07/16 03:05:17;;;;;;;5.63;1.30;;;;;;;11.06;100.00;97048.56;5024236;28;20105;-73
2022/07/16 03:07:43;;;;;;;5.40;1.48;;;;;;;11.10;100.00;97043.53;5025335;28;20046;-72
2022/07/16 03:10:10;;;;;;;4.30;1.30;;;;;;;11.17;100.00;97044.22;5030453;28;20511;-72
2022/07/16 03:12:36;;;;;;;3.70;1.17;;;;;;;11.10;100.00;97048.91;5026257;28;20040;-72
2022/07/16 03:15:03;;;;;;;4.20;1.13;;;;;;;10.97;100.00;97054.50;5037387;28;20034;-75
2022/07/16 03:17:29;;;;;;;3.80;1.40;;;;;;;10.88;100.00;97057.56;5026272;28;20416;-73
2022/07/16 03:19:55;;;;;;;4.30;1.58;;;;;;;10.93;100.00;97054.19;5022495;28;20029;-72
2022/07/16 03:22:20;;;;;;;7.57;1.55;;;;;;;10.88;100.00;97060.22;5024967;28;20511;-73
2022/07/16 03:24:46;;;;;;;7.45;1.50;;;;;;;10.93;100.00;97059.53;5030390;28;20049;-73
2022/07/16 03:27:12;;;;;;;4.28;1.58;;;;;;;10.92;100.00;97057.91;5024453;28;20021;-72
2022/07/16 03:29:38;;;;;;;6.13;1.40;;;;;;;10.89;100.00;97061.03;5023667;28;20267;-72
2022/07/16 03:32:04;;;;;;;5.60;1.30;;;;;;;10.75;100.00;97067.72;5023418;28;20103;-73
2022/07/16 03:34:30;;;;;;;4.78;1.45;;;;;;;10.81;100.00;97066.75;5024053;28;20055;-73
2022/07/16 03:36:55;;;;;;;2.35;1.10;;;;;;;10.90;100.00;97069.91;5029693;28;20037;-72
2022/07/16 03:39:21;;;;;;;4.75;1.30;;;;;;;10.90;100.00;97069.91;5021365;28;20060;-73
2022/07/16 03:41:46;;;;;;;5.13;1.40;;;;;;;10.92;100.00;97070.50;5025051;28;20089;-72
2022/07/16 03:44:12;;;;;;;3.78;1.60;;;;;;;10.93;100.00;97062.22;5023801;28;20033;-73
2022/07/16 03:46:38;;;;;;;5.25;1.23;;;;;;;10.88;100.00;97062.91;5023015;28;20297;-72
2022/07/16 03:49:04;;;;;;;3.38;1.30;;;;;;;10.93;100.00;97066.75;5024411;28;20454;-73
2022/07/16 03:51:29;;;;;;;3.67;1.45;;;;;;;10.92;100.00;97073.97;5025129;28;20036;-72
2022/07/16 03:53:55;;;;;;;4.60;1.30;;;;;;;10.99;100.00;97063.16;5024370;28;20442;-72
2022/07/16 03:56:21;;;;;;;4.10;1.30;;;;;;;11.09;100.00;97069.50;5025371;28;20487;-72
2022/07/16 03:58:47;;;;;;;4.50;1.63;;;;;;;11.20;100.00;97067.03;5026210;28;20464;-72
2022/07/16 04:01:12;;;;;;;4.25;1.40;;;;;;;11.26;100.00;97066.91;5029252;28;20120;-72
2022/07/16 04:03:38;;;;;;;7.93;1.35;;;;;;;11.33;100.00;97072.13;5028633;28;20029;-72
2022/07/16 04:06:04;;;;;;;4.55;1.65;;;;;;;11.39;100.00;97063.13;5031354;28;20120;-72
2022/07/16 04:08:30;;;;;;;4.90;1.48;;;;;;;11.44;100.00;97066.75;5034705;28;20055;-73
2022/07/16 04:10:56;;;;;;;5.32;1.40;;;;;;;11.46;100.00;97066.50;5028060;28;20038;-72
2022/07/16 04:13:22;;;;;;;4.13;1.60;;;;;;;11.47;100.00;97065.44;5025892;28;20028;-72
2022/07/16 04:15:47;;;;;;;5.47;1.40;;;;;;;11.51;100.00;97065.75;5034039;28;20079;-73
2022/07/16 04:18:13;;;;;;;6.45;1.60;;;;;;;11.55;100.00;97072.28;5025775;28;20030;-72
2022/07/16 04:20:38;;;;;;;4.72;1.58;;;;;;;11.57;100.00;97057.59;5017122;28;20036;-73
2022/07/16 04:23:04;;;;;;;5.45;1.50;;;;;;;11.61;100.00;97066.78;5050939;28;20218;-72
2022/07/16 04:25:29;;;;;;;4.57;1.42;;;;;;;11.59;100.00;97068.88;5036393;28;20754;-73
2022/07/16 04:27:55;;;;;;;4.20;1.50;;;;;;;11.53;100.00;97063.69;5032737;28;20124;-72
2022/07/16 04:30:21;;;;;;;4.75;1.77;;;;;;;11.46;100.00;97063.00;5024787;28;20096;-72
2022/07/16 04:32:47;;;;;;;4.47;1.98;;;;;;;11.41;100.00;97067.19;5030148;28;20096;-73
2022/07/16 04:35:13;;;;;;;5.80;1.63;;;;;;;11.33;100.00;97064.09;5028429;28;20037;-72
2022/07/16 04:37:40;;;;;;;5.70;1.58;;;;;;;11.37;100.00;97073.28;5049459;28;20121;-72
2022/07/16 04:40:07;;;;;;;10.45;2.13;;;;;;;11.61;100.00;97072.16;5033779;28;20045;-73
2022/07/16 04:42:35;;;;;;;3.40;1.42;;;;;;;11.90;100.00;97072.94;5028785;28;20119;-73
2022/07/16 04:45:01;;;;;;;3.58;1.60;;;;;;;12.05;100.00;97077.75;5032627;28;20038;-73
2022/07/16 04:47:27;;;;;;;5.00;1.25;;;;;;;12.27;100.00;97070.63;5027093;28;20017;-73
2022/07/16 04:49:52;;;;;;;3.90;1.48;;;;;;;12.45;100.00;97072.25;5032743;28;20128;-74
2022/07/16 04:52:18;;;;;;;3.00;1.30;;;;;;;12.61;100.00;97073.31;5030199;28;20025;-75
2022/07/16 04:54:43;;;;;;;7.75;1.40;;;;;;;12.73;100.00;97073.19;5028863;28;20036;-73
2022/07/16 04:57:09;;;;;;;9.77;1.52;;;;;;;12.88;100.00;97068.03;5029561;28;20419;-73
2022/07/16 04:59:34;;;;;;;5.05;1.73;;;;;;;13.04;100.00;97074.41;5027812;28;20044;-73
2022/07/16 05:04:44;;;;;;;4.80;1.77;;;;;;;13.41;100.00;97076.50;5028674;28;20037;-74
2022/07/16 05:07:10;;;;;;;7.57;1.80;;;;;;;13.60;100.00;97073.22;5027155;28;20048;-72
2022/07/16 05:09:35;;;;;;;6.07;1.60;;;;;;;13.64;100.00;97073.56;5028390;28;21052;-72
2022/07/16 05:12:01;;;;;;;5.10;1.58;;;;;;;13.78;100.00;97082.84;5027764;28;20411;-72
2022/07/16 05:14:27;;;;;;;5.57;2.35;;;;;;;13.86;100.00;97086.97;5027495;28;20076;-74
2022/07/16 05:16:54;;;;;;;5.68;1.60;;;;;;;13.97;100.00;97091.38;5026765;28;20032;-74
2022/07/16 05:19:20;;;;;;;5.25;1.70;;;;;;;14.06;100.00;97095.22;5028083;28;20025;-72
2022/07/16 05:21:45;;;;;;;5.25;1.83;;;;;;;14.13;100.00;97086.94;5019383;28;20049;-73
2022/07/16 05:24:11;;;;;;;4.30;1.60;;;;;;;14.19;100.00;97091.31;5030104;28;20029;-73
2022/07/16 05:26:36;;;;;;;5.80;1.60;;;;;;;14.24;100.00;97088.66;5027774;28;20041;-73
2022/07/16 05:29:02;;;;;;;5.53;1.65;;;;;;;14.27;100.00;97095.41;5031533;28;20037;-74
2022/07/16 05:31:27;;;;;;;6.90;1.70;;;;;;;14.25;100.00;97092.97;5030092;28;20481;-74
2022/07/16 05:33:53;;;;;;;3.90;1.42;;;;;;;14.26;100.00;97093.78;5027750;28;20508;-73
2022/07/16 05:36:18;;;;;;;6.88;1.90;;;;;;;14.28;100.00;97097.03;5034587;28;20017;-74
2022/07/16 05:38:44;;;;;;;4.07;1.75;;;;;;;14.29;100.00;97096.75;5041259;28;20506;-72
2022/07/16 05:41:10;;;;;;;6.55;2.00;;;;;;;14.38;100.00;97100.59;5024004;28;20056;-73
2022/07/16 05:43:35;;;;;;;8.70;1.92;;;;;;;14.42;100.00;97093.66;5029763;28;20132;-73
2022/07/16 05:46:01;;;;;;;5.95;1.95;;;;;;;14.47;100.00;97099.13;5026092;28;20033;-73
2022/07/16 05:48:26;;;;;;;8.30;1.98;;;;;;;14.53;100.00;97104.53;5026296;28;20025;-72
2022/07/16 05:50:52;;;;;;;6.43;1.90;;;;;;;14.54;100.00;97106.94;5028527;28;20472;-73
2022/07/16 05:53:17;;;;;;;3.03;1.83;;;;;;;14.59;100.00;97112.38;5026935;28;20491;-73
2022/07/16 05:55:43;;;;;;;12.07;2.13;;;;;;;14.65;100.00;97110.53;5028752;28;20030;-73
2022/07/16 05:58:08;;;;;;;6.35;2.33;;;;;;;14.75;100.00;97116.00;5027643;28;20041;-72
2022/07/16 06:00:34;;;;;;;5.90;2.17;;;;;;;14.89;100.00;97105.59;5027579;28;20033;-73
2022/07/16 06:02:59;;;;;;;7.43;2.33;;;;;;;14.93;100.00;97104.78;5026364;28;20033;-72
2022/07/16 06:05:26;;;;;;;7.10;2.00;;;;;;;15.10;100.00;97104.66;5025455;28;20087;-72
2022/07/16 06:07:52;;;;;;;4.15;2.13;;;;;;;15.14;100.00;97103.03;5025474;28;20039;-73
2022/07/16 06:10:18;;;;;;;8.73;2.67;;;;;;;15.37;100.00;97104.50;5026250;28;20361;-73
2022/07/16 06:12:44;;;;;;;11.95;2.38;;;;;;;15.62;100.00;97097.59;5023587;28;20467;-72
2022/07/16 06:15:11;;;;;;;6.53;2.72;;;;;;;15.74;100.00;97099.00;5025056;28;20040;-72
2022/07/16 06:17:37;;;;;;;7.43;2.80;;;;;;;15.77;100.00;97106.56;5025889;28;20048;-72
2022/07/16 06:20:05;;;;;;;5.07;2.28;;;;;;;15.83;100.00;97110.09;5023692;28;20087;-73
2022/07/16 06:22:31;;;;;;;6.57;2.58;;;;;;;15.94;100.00;97095.53;5023735;28;20045;-72
2022/07/16 06:24:56;;;;;;;6.00;2.67;;;;;;;16.05;100.00;97107.16;5024330;28;20372;-73
2022/07/16 06:27:21;;;;;;;5.50;2.60;;;;;;;16.15;100.00;97107.97;5024899;28;20056;-73
2022/07/16 06:29:47;;;;;;;12.00;3.00;;;;;;;16.01;100.00;97111.47;5025824;28;20114;-73
2022/07/16 06:32:13;;;;;;;7.15;2.70;;;;;;;15.97;100.00;97108.50;5027935;28;20057;-71
2022/07/16 06:34:38;;;;;;;5.78;2.33;;;;;;;16.12;100.00;97105.00;5028486;28;20029;-72
2022/07/16 06:37:04;;;;;;;6.75;2.40;;;;;;;16.33;100.00;97108.53;5023630;28;20115;-72
2022/07/16 06:39:29;;;;;;;6.20;2.72;;;;;;;16.46;100.00;97118.00;5024129;28;20033;-72
2022/07/16 06:41:55;;;;;;;8.77;2.67;;;;;;;16.64;100.00;97115.56;5025399;28;20041;-73
2022/07/16 06:44:21;;;;;;;8.50;2.85;;;;;;;16.80;100.00;97118.28;5026399;28;20136;-72
2022/07/16 06:46:47;;;;;;;13.48;2.55;;;;;;;16.93;100.00;97123.94;5025120;28;20039;-72
2022/07/16 06:49:14;;;;;;;8.13;2.83;;;;;;;17.01;100.00;97121.75;5023338;28;20037;-72
2022/07/16 06:51:40;;;;;;;5.07;2.55;;;;;;;17.15;100.00;97120.13;5026460;28;20115;-72
2022/07/16 06:54:05;;;;;;;5.07;2.78;;;;;;;17.20;100.00;97120.13;5023882;28;20033;-72
2022/07/16 06:56:31;;;;;;;5.13;2.65;;;;;;;17.33;100.00;97127.63;5026326;28;20047;-73
2022/07/16 06:58:56;;;;;;;5.90;2.25;;;;;;;17.43;100.00;97124.06;5025578;28;20052;-72
2022/07/16 07:01:23;;;;;;;6.40;2.30;;;;;;;17.47;100.00;97136.78;5024298;28;20033;-72
2022/07/16 07:03:48;;;;;;;11.48;2.33;;;;;;;17.57;100.00;97132.41;5027559;28;20041;-72
2022/07/16 07:06:14;;;;;;;5.25;2.28;;;;;;;17.68;100.00;97128.59;5029405;28;20036;-72
2022/07/16 07:08:43;;;;;;;6.57;2.38;;;;;;;17.82;100.00;97132.34;5028748;28;20017;-73
2022/07/16 07:11:13;;;;;;;7.20;2.95;;;;;;;17.78;100.00;97123.16;5023796;28;20044;-73
2022/07/16 07:13:38;;;;;;;11.88;2.65;;;;;;;17.60;100.00;97129.97;5026000;28;20037;-73
2022/07/16 07:16:05;;;;;;;4.60;2.53;;;;;;;17.74;100.00;97132.91;5025614;28;20040;-74
2022/07/16 07:18:31;;;;;;;8.70;2.70;;;;;;;17.47;100.00;97133.28;5024794;28;20400;-73
2022/07/16 07:20:59;;;;;;;11.98;2.60;;;;;;;17.42;100.00;97136.78;5023710;28;20474;-73
2022/07/16 07:23:24;;;;;;;8.20;2.60;;;;;;;17.54;100.00;97141.91;5025751;28;20385;-74
2022/07/16 07:25:50;;;;;;;4.93;2.40;;;;;;;17.70;100.00;97140.78;5030612;28;20120;-73
2022/07/16 07:28:15;;;;;;;5.05;2.00;;;;;;;17.89;100.00;97130.13;5023981;28;20033;-73
2022/07/16 07:30:41;;;;;;;4.22;2.17;;;;;;;18.08;100.00;97138.44;5024265;28;20036;-73
2022/07/16 07:33:06;;;;;;;6.47;2.00;;;;;;;18.22;100.00;97136.72;5028441;28;20040;-72
2022/07/16 07:35:32;;;;;;;7.60;2.00;;;;;;;18.36;100.00;97137.72;5036295;28;20037;-73
2022/07/16 07:37:58;;;;;;;6.50;1.88;;;;;;;18.40;99.51;97129.81;5028758;28;20231;-72
2022/07/16 07:40:23;;;;;;;7.25;2.42;;;;;;;18.14;99.79;97136.50;5023109;28;20064;-72
2022/07/16 07:42:49;;;;;;;5.20;1.90;;;;;;;17.90;100.00;97134.47;5024587;28;20033;-73
2022/07/16 07:45:14;;;;;;;4.45;1.75;;;;;;;17.68;100.00;97137.53;5023972;28;20403;-73
2022/07/16 07:47:40;;;;;;;5.53;1.65;;;;;;;17.51;100.00;97140.56;5023640;28;20376;-73
2022/07/16 07:50:07;;;;;;;4.10;1.75;;;;;;;17.68;99.42;97150.25;5020626;28;20775;-73
2022/07/16 07:52:33;;;;;;;3.05;1.50;;;;;;;17.72;98.97;97146.72;5024355;28;20021;-72
2022/07/16 07:54:59;;;;;;;4.85;1.73;;;;;;;17.75;99.09;97140.78;5025432;28;20041;-73
2022/07/16 07:57:24;;;;;;;8.45;1.70;;;;;;;18.13;97.51;97138.38;5023094;28;20022;-73
2022/07/16 07:59:50;;;;;;;6.85;1.85;;;;;;;18.62;95.76;97143.75;5025852;28;20451;-73
2022/07/16 08:02:16;;;;;;;5.47;1.60;;;;;;;18.80;94.33;97153.09;5024276;28;20083;-73
2022/07/16 08:04:41;;;;;;;4.72;1.80;;;;;;;18.96;90.63;97137.50;5027247;28;20033;-73
2022/07/16 08:07:07;;;;;;;9.40;1.95;;;;;;;18.97;91.07;97146.44;5021949;28;20535;-73
2022/07/16 08:09:32;;;;;;;5.72;1.63;;;;;;;19.14;92.58;97144.94;5023399;28;20064;-73
2022/07/16 08:11:58;;;;;;;4.03;1.60;;;;;;;19.10;92.87;97138.47;5025128;28;20750;-72
2022/07/16 08:14:23;;;;;;;4.30;2.00;;;;;;;18.83;91.63;97152.56;5021981;28;20048;-73
2022/07/16 08:16:49;;;;;;;5.35;2.10;;;;;;;18.74;91.84;97145.31;5025375;28;20341;-73
2022/07/16 08:19:14;;;;;;;4.85;1.95;;;;;;;18.97;92.25;97143.75;5024041;28;20061;-73
2022/07/16 08:21:39;;;;;;;5.80;2.30;;;;;;;19.14;90.48;97142.25;5023629;28;20037;-72
2022/07/16 08:26:49;;;;;;;3.95;1.83;;;;;;;19.05;89.87;97152.06;5024186;28;20041;-73
2022/07/16 08:29:15;;;;;;;4.60;1.80;;;;;;;19.14;91.24;97144.94;5024030;28;20071;-73
2022/07/16 08:31:40;;;;;;;5.38;2.30;;;;;;;19.33;90.40;97163.19;5028810;28;20072;-73
2022/07/16 08:34:06;;;;;;;5.80;2.10;;;;;;;19.39;89.99;97156.63;5023357;28;20041;-73
2022/07/16 08:36:33;;;;;;;4.38;2.13;;;;;;;19.30;92.16;97148.31;5022665;28;20116;-73
2022/07/16 08:38:59;;;;;;;4.68;1.98;;;;;;;19.38;90.72;97157.72;5037887;28;20041;-73
2022/07/16 08:41:25;;;;;;;3.88;1.48;;;;;;;19.48;90.46;97160.31;5025966;28;20446;-73
2022/07/16 08:43:52;;;;;;;6.55;2.00;;;;;;;19.66;90.72;97159.59;5023972;28;20034;-73
2022/07/16 08:46:21;;;;;;;4.47;2.20;;;;;;;19.51;91.75;97165.16;5024231;28;20079;-73
2022/07/16 08:48:48;;;;;;;4.75;2.00;;;;;;;19.72;90.99;97158.44;5026632;28;20087;-73
2022/07/16 08:51:20;;;;;;;6.70;2.03;;;;;;;20.12;89.66;97164.44;5026328;28;20795;-72
2022/07/16 08:53:47;;;;;;;7.00;2.45;;;;;;;20.16;90.14;97164.69;5027776;28;20575;-71
2022/07/16 08:56:12;;;;;;;6.47;2.08;;;;;;;19.85;90.97;97172.41;5028649;28;20057;-70
2022/07/16 08:58:39;;;;;;;3.95;1.98;;;;;;;19.87;91.24;97159.34;5026535;28;20296;-72
2022/07/16 09:01:04;;;;;;;5.85;2.22;;;;;;;20.13;90.51;97163.34;5026538;28;20043;-72
2022/07/16 09:03:30;;;;;;;5.55;2.17;;;;;;;20.10;92.69;97158.50;5030118;28;20033;-72
2022/07/16 09:05:55;;;;;;;6.97;2.28;;;;;;;20.11;91.95;97170.16;5026607;28;20432;-73
2022/07/16 09:08:21;;;;;;;5.07;2.30;;;;;;;20.50;89.15;97159.03;5027186;28;20589;-72
2022/07/16 09:10:46;;;;;;;11.73;2.30;;;;;;;20.57;89.12;97162.19;5028560;28;20400;-73
2022/07/16 09:13:13;;;;;;;6.93;2.50;;;;;;;20.79;88.42;97159.69;5027727;28;20041;-72
2022/07/16 09:15:42;;;;;;;6.15;2.00;;;;;;;20.81;88.06;97171.06;5027489;28;20192;-73
2022/07/16 09:18:12;;;;;;;5.40;2.53;;;;;;;20.57;91.12;97171.16;5026571;28;20038;-72
2022/07/16 09:21:02;;;;;;;6.65;2.55;;;;;;;20.42;93.86;97173.28;5029521;28;20025;-71
2022/07/16 09:23:36;;;;;;;8.27;3.17;;;;;;;20.35;95.45;97165.47;5028633;28;20051;-73
2022/07/16 09:26:05;;;;;;;7.13;2.90;;;;;;;20.52;95.04;97170.41;5027226;28;20049;-72
2022/07/16 09:28:51;;;;;;;8.85;3.17;;;;;;;20.82;94.28;97185.47;5024502;28;20034;-73
2022/07/16 09:31:31;;;;;;;6.80;2.97;;;;;;;20.66;94.79;97175.94;5025571;28;20538;-73
2022/07/16 09:34:16;;;;;;;6.72;3.10;;;;;;;20.92;92.83;97170.88;5025854;28;20051;-72
2022/07/16 09:37:03;;;;;;;7.72;2.60;;;;;;;21.08;92.83;97167.59;5026138;28;20517;-73
2022/07/16 09:39:30;;;;;;;6.90;2.70;;;;;;;20.86;93.01;97173.69;5025997;28;20041;-73
2022/07/16 09:41:56;;;;;;;5.55;2.30;;;;;;;21.13;93.35;97174.88;5028645;28;20480;-74
2022/07/16 09:44:27;;;;;;;5.50;2.35;;;;;;;21.11;89.79;97179.81;5027566;28;20049;-74
2022/07/16 09:47:00;;;;;;;6.25;2.80;;;;;;;21.02;89.90;97166.09;5030059;28;20385;-73
2022/07/16 09:49:27;;;;;;;8.45;2.70;;;;;;;21.06;91.25;97175.25;5027867;28;20098;-74
2022/07/16 09:51:53;;;;;;;7.32;2.60;;;;;;;21.17;91.02;97177.78;5028878;28;20037;-74
2022/07/16 09:54:32;;;;;;;6.20;2.70;;;;;;;21.16;90.43;97179.72;5042324;28;20033;-73
2022/07/16 09:57:18;;;;;;;5.53;2.10;;;;;;;21.56;88.42;97191.00;5023727;28;20037;-74
2022/07/16 09:59:45;;;;;;;10.25;2.50;;;;;;;21.80;89.19;97186.19;5024537;28;20048;-73
2022/07/16 10:02:11;;;;;;;6.47;2.40;;;;;;;21.45;89.39;97190.38;5026260;28;20100;-74
2022/07/16 10:04:37;;;;;;;3.00;1.70;;;;;;;21.27;88.63;97186.63;5027093;28;20033;-73
2022/07/16 10:07:02;;;;;;;5.60;2.10;;;;;;;21.45;88.79;97186.84;5025617;28;20033;-74
2022/07/16 10:09:28;;;;;;;6.65;1.85;;;;;;;21.13;89.54;97196.63;5028828;28;20503;-73
2022/07/16 10:11:57;;;;;;;4.88;1.90;;;;;;;20.71;91.53;97203.84;5025011;28;20041;-74
2022/07/16 10:14:24;;;;;;;4.15;2.00;;;;;;;20.72;91.01;97200.03;5026885;28;20114;-73
2022/07/16 10:16:50;;;;;;;6.32;2.05;;;;;;;21.00;90.66;97205.56;5028218;28;20036;-73
2022/07/16 10:19:15;;;;;;;3.88;2.00;;;;;;;21.41;87.62;97211.16;5026024;28;20047;-74
2022/07/16 10:22:15;;;;;;;7.68;2.03;;;;;;;21.70;87.47;97214.41;5026193;28;20104;-73
2022/07/16 10:24:53;;;;;;;3.85;2.03;;;;;;;21.92;84.20;97219.16;5025505;28;20163;-71
2022/07/16 10:27:35;;;;;;;3.67;2.05;;;;;;;21.81;85.79;97216.94;5023550;28;20040;-71
2022/07/16 10:30:15;;;;;;;5.88;2.17;;;;;;;21.75;86.21;97221.69;5026180;28;20460;-71
2022/07/16 10:32:59;;;;;;;5.03;2.20;;;;;;;21.87;84.76;97218.47;5026238;28;20731;-71
2022/07/16 10:35:30;;;;;;;4.15;2.42;;;;;;;22.53;83.14;97215.16;5024420;28;20171;-71
2022/07/16 10:38:06;;;;;;;5.82;2.30;;;;;;;23.05;79.14;97218.34;5032287;28;20037;-71
2022/07/16 10:40:33;;;;;;;11.05;2.10;;;;;;;23.14;81.68;97217.59;5025470;28;20075;-72
2022/07/16 10:43:17;;;;;;;5.85;2.25;;;;;;;22.93;76.15;97212.63;5027464;28;20056;-73
2022/07/16 10:45:54;;;;;;;8.20;2.33;;;;;;;22.84;78.37;97213.66;5026492;28;20098;-73
2022/07/16 10:48:50;;;;;;;4.93;2.47;;;;;;;22.79;79.06;97206.38;5026512;28;20454;-72
2022/07/16 10:51:24;;;;;;;4.55;2.30;;;;;;;22.29;79.93;97222.78;5024327;28;20053;-73
2022/07/16 10:54:01;;;;;;;4.03;2.38;;;;;;;22.42;80.12;97216.53;5041093;28;20484;-72
2022/07/16 10:56:50;;;;;;;7.55;2.85;;;;;;;22.33;79.16;97220.25;5032556;28;20036;-72
2022/07/16 10:59:22;;;;;;;5.43;2.58;;;;;;;22.45;82.08;97224.06;5023863;28;20112;-72
2022/07/16 11:01:51;;;;;;;6.80;2.92;;;;;;;22.66;79.14;97227.16;5025296;28;20037;-73
2022/07/16 11:04:33;;;;;;;9.15;2.78;;;;;;;23.34;76.57;97222.53;5024171;28;20037;-74
2022/07/16 11:07:01;;;;;;;6.13;3.00;;;;;;;23.43;74.04;97209.75;5022779;28;20533;-73
2022/07/16 11:09:31;;;;;;;5.30;2.67;;;;;;;23.16;77.00;97216.16;5023660;28;20029;-73
2022/07/16 11:12:19;;;;;;;6.13;2.80;;;;;;;23.85;73.75;97207.56;5024753;28;20088;-73
2022/07/16 11:14:47;;;;;;;7.97;2.83;;;;;;;24.22;72.99;97210.88;5027444;28;20376;-73
2022/07/16 11:17:14;;;;;;;6.00;2.90;;;;;;;24.60;67.58;97211.94;5023606;28;20037;-72
2022/07/16 11:19:48;;;;;;;4.10;2.42;;;;;;;24.56;69.49;97219.16;5025345;28;20235;-73
2022/07/16 11:22:20;;;;;;;5.88;3.00;;;;;;;24.60;68.16;97211.94;5025535;28;20444;-73
2022/07/16 11:24:48;;;;;;;5.25;2.78;;;;;;;25.02;65.43;97212.25;5025069;28;20546;-73
2022/07/16 11:27:15;;;;;;;8.77;3.60;;;;;;;25.89;53.37;97210.13;5021869;28;20505;-73
2022/07/16 11:29:41;;;;;;;5.40;3.10;;;;;;;26.89;49.76;97208.56;5024543;28;20530;-73
2022/07/16 11:32:11;;;;;;;6.57;2.67;;;;;;;26.49;50.12;97203.53;5023932;28;20054;-73
2022/07/16 11:34:37;;;;;;;5.37;3.00;;;;;;;24.24;64.19;97228.56;5024819;28;20037;-73